sensor_id;sensor_type;location;lat;lon;timestamp;P1;durP1;ratioP1;P2;durP2;ratioP2
19446;SDS011;9862;49.462;11.054;2023-05-02T00:01:57;14.93;;;11.00;;
19446;SDS011;9862;49.462;11.054;2023-05-02T00:04:24;17.65;;;11.45;;
19446;SDS011;9862;49.462;11.054;2023-05-02T00:06:50;14.88;;;11.10;;
19446;SDS011;9862;49.462;11.054;2023-05-02T00:09:19;15.02;;;11.02;;
19446;SDS011;9862;49.462;11.054;2023-05-02T00:11:46;13.90;;;10.48;;
19446;SDS011;9862;49.462;11.054;2023-05-02T00:14:12;14.10;;;10.18;;
19446;SDS011;9862;49.462;11.054;2023-05-02T00:16:39;17.20;;;10.20;;
19446;SDS011;9862;49.462;11.054;2023-05-02T00:19:05;13.95;;;9.63;;
19446;SDS011;9862;49.462;11.054;2023-05-02T00:21:32;12.98;;;9.98;;
19446;SDS011;9862;49.462;11.054;2023-05-02T00:23:58;17.77;;;10.50;;
19446;SDS011;9862;49.462;11.054;2023-05-02T00:26:26;11.63;;;9.32;;
19446;SDS011;9862;49.462;11.054;2023-05-02T00:28:53;14.55;;;9.68;;
19446;SDS011;9862;49.462;11.054;2023-05-02T00:31:20;13.55;;;9.38;;
19446;SDS011;9862;49.462;11.054;2023-05-02T00:33:46;12.25;;;9.43;;
19446;SDS011;9862;49.462;11.054;2023-05-02T00:36:13;13.68;;;9.73;;
19446;SDS011;9862;49.462;11.054;2023-05-02T00:38:41;12.35;;;9.80;;
19446;SDS011;9862;49.462;11.054;2023-05-02T00:41:07;13.35;;;9.70;;
19446;SDS011;9862;49.462;11.054;2023-05-02T00:43:36;15.25;;;10.60;;
19446;SDS011;9862;49.462;11.054;2023-05-02T00:46:05;13.85;;;9.23;;
19446;SDS011;9862;49.462;11.054;2023-05-02T00:48:31;11.88;;;8.63;;
19446;SDS011;9862;49.462;11.054;2023-05-02T00:50:58;13.18;;;9.73;;
19446;SDS011;9862;49.462;11.054;2023-05-02T00:53:29;10.30;;;8.02;;
19446;SDS011;9862;49.462;11.054;2023-05-02T00:55:56;13.73;;;9.68;;
19446;SDS011;9862;49.462;11.054;2023-05-02T00:58:23;13.30;;;9.73;;
19446;SDS011;9862;49.462;11.054;2023-05-02T01:00:57;12.65;;;9.82;;
19446;SDS011;9862;49.462;11.054;2023-05-02T01:03:35;13.77;;;9.02;;
19446;SDS011;9862;49.462;11.054;2023-05-02T01:06:21;12.60;;;8.85;;
19446;SDS011;9862;49.462;11.054;2023-05-02T01:08:59;12.50;;;8.88;;
19446;SDS011;9862;49.462;11.054;2023-05-02T01:11:36;12.90;;;8.82;;
19446;SDS011;9862;49.462;11.054;2023-05-02T01:14:09;12.05;;;9.40;;
19446;SDS011;9862;49.462;11.054;2023-05-02T01:16:38;12.07;;;9.50;;
19446;SDS011;9862;49.462;11.054;2023-05-02T01:19:09;12.65;;;9.52;;
19446;SDS011;9862;49.462;11.054;2023-05-02T01:21:44;11.70;;;9.38;;
19446;SDS011;9862;49.462;11.054;2023-05-02T01:24:15;16.25;;;10.23;;
19446;SDS011;9862;49.462;11.054;2023-05-02T01:26:55;13.18;;;10.30;;
19446;SDS011;9862;49.462;11.054;2023-05-02T01:29:30;13.10;;;10.15;;
19446;SDS011;9862;49.462;11.054;2023-05-02T01:31:58;13.57;;;10.52;;
19446;SDS011;9862;49.462;11.054;2023-05-02T01:34:27;14.38;;;10.45;;
19446;SDS011;9862;49.462;11.054;2023-05-02T01:36:55;15.10;;;10.63;;
19446;SDS011;9862;49.462;11.054;2023-05-02T01:39:24;13.82;;;10.13;;
19446;SDS011;9862;49.462;11.054;2023-05-02T01:41:52;13.77;;;10.23;;
19446;SDS011;9862;49.462;11.054;2023-05-02T01:44:22;12.88;;;10.45;;
19446;SDS011;9862;49.462;11.054;2023-05-02T01:46:52;15.48;;;11.20;;
19446;SDS011;9862;49.462;11.054;2023-05-02T01:49:20;13.30;;;10.48;;
19446;SDS011;9862;49.462;11.054;2023-05-02T01:51:48;13.98;;;10.95;;
19446;SDS011;9862;49.462;11.054;2023-05-02T01:54:17;13.18;;;10.27;;
19446;SDS011;9862;49.462;11.054;2023-05-02T01:56:46;16.10;;;11.15;;
19446;SDS011;9862;49.462;11.054;2023-05-02T01:59:14;15.90;;;10.48;;
19446;SDS011;9862;49.462;11.054;2023-05-02T02:01:43;13.60;;;10.20;;
19446;SDS011;9862;49.462;11.054;2023-05-02T02:04:13;14.43;;;10.27;;
19446;SDS011;9862;49.462;11.054;2023-05-02T02:06:43;12.82;;;9.73;;
19446;SDS011;9862;49.462;11.054;2023-05-02T02:09:13;12.82;;;9.93;;
19446;SDS011;9862;49.462;11.054;2023-05-02T02:11:42;13.25;;;10.25;;
19446;SDS011;9862;49.462;11.054;2023-05-02T02:14:16;15.50;;;10.10;;
19446;SDS011;9862;49.462;11.054;2023-05-02T02:16:45;14.38;;;10.55;;
19446;SDS011;9862;49.462;11.054;2023-05-02T02:19:14;15.40;;;10.60;;
19446;SDS011;9862;49.462;11.054;2023-05-02T02:21:41;14.15;;;11.38;;
19446;SDS011;9862;49.462;11.054;2023-05-02T02:24:08;13.55;;;10.80;;
19446;SDS011;9862;49.462;11.054;2023-05-02T02:26:36;13.90;;;10.63;;
19446;SDS011;9862;49.462;11.054;2023-05-02T02:29:03;12.63;;;9.63;;
19446;SDS011;9862;49.462;11.054;2023-05-02T02:31:30;11.68;;;9.05;;
19446;SDS011;9862;49.462;11.054;2023-05-02T02:33:57;14.60;;;10.73;;
19446;SDS011;9862;49.462;11.054;2023-05-02T02:36:28;12.05;;;9.38;;
19446;SDS011;9862;49.462;11.054;2023-05-02T02:39:01;12.95;;;10.15;;
19446;SDS011;9862;49.462;11.054;2023-05-02T02:41:35;14.85;;;9.70;;
19446;SDS011;9862;49.462;11.054;2023-05-02T02:44:09;12.32;;;10.05;;
19446;SDS011;9862;49.462;11.054;2023-05-02T02:46:49;12.93;;;10.30;;
19446;SDS011;9862;49.462;11.054;2023-05-02T02:49:26;14.00;;;10.43;;
19446;SDS011;9862;49.462;11.054;2023-05-02T02:52:01;13.95;;;10.25;;
19446;SDS011;9862;49.462;11.054;2023-05-02T02:54:40;11.55;;;9.43;;
19446;SDS011;9862;49.462;11.054;2023-05-02T02:57:14;13.02;;;9.50;;
19446;SDS011;9862;49.462;11.054;2023-05-02T02:59:46;13.52;;;10.38;;
19446;SDS011;9862;49.462;11.054;2023-05-02T03:02:21;16.75;;;10.93;;
19446;SDS011;9862;49.462;11.054;2023-05-02T03:04:54;14.50;;;10.20;;
19446;SDS011;9862;49.462;11.054;2023-05-02T03:07:23;12.32;;;9.40;;
19446;SDS011;9862;49.462;11.054;2023-05-02T03:09:52;13.85;;;10.00;;
19446;SDS011;9862;49.462;11.054;2023-05-02T03:12:19;13.70;;;10.88;;
19446;SDS011;9862;49.462;11.054;2023-05-02T03:14:46;12.60;;;9.27;;
19446;SDS011;9862;49.462;11.054;2023-05-02T03:17:13;14.00;;;10.07;;
19446;SDS011;9862;49.462;11.054;2023-05-02T03:19:39;13.57;;;10.25;;
19446;SDS011;9862;49.462;11.054;2023-05-02T03:22:06;15.45;;;9.80;;
19446;SDS011;9862;49.462;11.054;2023-05-02T03:24:33;14.02;;;9.40;;
19446;SDS011;9862;49.462;11.054;2023-05-02T03:27:00;13.70;;;10.18;;
19446;SDS011;9862;49.462;11.054;2023-05-02T03:29:27;13.52;;;9.52;;
19446;SDS011;9862;49.462;11.054;2023-05-02T03:31:53;10.93;;;8.82;;
19446;SDS011;9862;49.462;11.054;2023-05-02T03:34:20;11.18;;;9.20;;
19446;SDS011;9862;49.462;11.054;2023-05-02T03:36:47;12.88;;;9.13;;
19446;SDS011;9862;49.462;11.054;2023-05-02T03:39:13;11.73;;;8.57;;
19446;SDS011;9862;49.462;11.054;2023-05-02T03:41:41;11.15;;;8.15;;
19446;SDS011;9862;49.462;11.054;2023-05-02T03:44:08;34.95;;;18.85;;
19446;SDS011;9862;49.462;11.054;2023-05-02T03:46:34;30.48;;;20.15;;
19446;SDS011;9862;49.462;11.054;2023-05-02T03:49:01;20.83;;;15.55;;
19446;SDS011;9862;49.462;11.054;2023-05-02T03:51:28;19.42;;;14.07;;
19446;SDS011;9862;49.462;11.054;2023-05-02T03:53:54;19.67;;;12.38;;
19446;SDS011;9862;49.462;11.054;2023-05-02T03:56:21;12.27;;;9.73;;
19446;SDS011;9862;49.462;11.054;2023-05-02T03:58:49;25.60;;;16.55;;
19446;SDS011;9862;49.462;11.054;2023-05-02T04:01:16;27.27;;;18.42;;
19446;SDS011;9862;49.462;11.054;2023-05-02T04:03:42;24.58;;;17.13;;
19446;SDS011;9862;49.462;11.054;2023-05-02T04:06:09;23.17;;;16.80;;
19446;SDS011;9862;49.462;11.054;2023-05-02T04:08:37;18.77;;;13.10;;
19446;SDS011;9862;49.462;11.054;2023-05-02T04:11:03;16.92;;;11.10;;
19446;SDS011;9862;49.462;11.054;2023-05-02T04:13:30;13.95;;;10.45;;
19446;SDS011;9862;49.462;11.054;2023-05-02T04:15:58;22.33;;;15.52;;
19446;SDS011;9862;49.462;11.054;2023-05-02T04:18:24;16.08;;;10.38;;
19446;SDS011;9862;49.462;11.054;2023-05-02T04:20:51;12.68;;;9.88;;
19446;SDS011;9862;49.462;11.054;2023-05-02T04:23:18;18.50;;;12.93;;
19446;SDS011;9862;49.462;11.054;2023-05-02T04:25:49;25.05;;;16.67;;
19446;SDS011;9862;49.462;11.054;2023-05-02T04:28:16;25.83;;;15.43;;
19446;SDS011;9862;49.462;11.054;2023-05-02T04:30:43;23.45;;;15.77;;
19446;SDS011;9862;49.462;11.054;2023-05-02T04:33:11;15.93;;;12.10;;
19446;SDS011;9862;49.462;11.054;2023-05-02T04:35:38;13.75;;;10.93;;
19446;SDS011;9862;49.462;11.054;2023-05-02T04:38:05;42.15;;;26.20;;
19446;SDS011;9862;49.462;11.054;2023-05-02T04:40:32;35.97;;;23.33;;
19446;SDS011;9862;49.462;11.054;2023-05-02T04:42:59;19.17;;;12.82;;
19446;SDS011;9862;49.462;11.054;2023-05-02T04:45:26;14.50;;;11.15;;
19446;SDS011;9862;49.462;11.054;2023-05-02T04:47:52;16.55;;;11.07;;
19446;SDS011;9862;49.462;11.054;2023-05-02T04:50:20;16.73;;;9.90;;
19446;SDS011;9862;49.462;11.054;2023-05-02T04:52:47;15.52;;;10.85;;
19446;SDS011;9862;49.462;11.054;2023-05-02T04:55:13;14.52;;;10.60;;
19446;SDS011;9862;49.462;11.054;2023-05-02T04:57:40;17.20;;;12.13;;
19446;SDS011;9862;49.462;11.054;2023-05-02T05:00:07;24.30;;;16.33;;
19446;SDS011;9862;49.462;11.054;2023-05-02T05:02:34;24.33;;;14.82;;
19446;SDS011;9862;49.462;11.054;2023-05-02T05:05:00;18.20;;;13.02;;
19446;SDS011;9862;49.462;11.054;2023-05-02T05:07:29;16.67;;;12.77;;
19446;SDS011;9862;49.462;11.054;2023-05-02T05:09:56;18.23;;;12.50;;
19446;SDS011;9862;49.462;11.054;2023-05-02T05:12:22;16.75;;;12.48;;
19446;SDS011;9862;49.462;11.054;2023-05-02T05:14:49;16.58;;;12.73;;
19446;SDS011;9862;49.462;11.054;2023-05-02T05:17:15;15.90;;;11.57;;
19446;SDS011;9862;49.462;11.054;2023-05-02T05:19:42;14.68;;;10.48;;
19446;SDS011;9862;49.462;11.054;2023-05-02T05:22:09;13.88;;;10.60;;
19446;SDS011;9862;49.462;11.054;2023-05-02T05:24:37;15.73;;;11.40;;
19446;SDS011;9862;49.462;11.054;2023-05-02T05:27:04;13.80;;;10.80;;
19446;SDS011;9862;49.462;11.054;2023-05-02T05:29:30;15.98;;;11.20;;
19446;SDS011;9862;49.462;11.054;2023-05-02T05:31:57;13.40;;;10.82;;
19446;SDS011;9862;49.462;11.054;2023-05-02T05:34:24;25.52;;;17.63;;
19446;SDS011;9862;49.462;11.054;2023-05-02T05:36:51;20.90;;;14.38;;
19446;SDS011;9862;49.462;11.054;2023-05-02T05:39:17;16.52;;;12.30;;
19446;SDS011;9862;49.462;11.054;2023-05-02T05:41:45;16.02;;;11.32;;
19446;SDS011;9862;49.462;11.054;2023-05-02T05:44:12;16.40;;;10.63;;
19446;SDS011;9862;49.462;11.054;2023-05-02T05:46:38;14.55;;;10.38;;
19446;SDS011;9862;49.462;11.054;2023-05-02T05:49:05;12.80;;;9.93;;
19446;SDS011;9862;49.462;11.054;2023-05-02T05:51:31;15.38;;;10.50;;
19446;SDS011;9862;49.462;11.054;2023-05-02T05:53:58;16.17;;;10.60;;
19446;SDS011;9862;49.462;11.054;2023-05-02T05:56:24;13.13;;;10.00;;
19446;SDS011;9862;49.462;11.054;2023-05-02T05:58:52;21.27;;;15.40;;
19446;SDS011;9862;49.462;11.054;2023-05-02T06:01:19;35.50;;;22.00;;
19446;SDS011;9862;49.462;11.054;2023-05-02T06:03:47;19.60;;;14.30;;
19446;SDS011;9862;49.462;11.054;2023-05-02T06:06:13;19.50;;;12.90;;
19446;SDS011;9862;49.462;11.054;2023-05-02T06:08:40;17.08;;;11.35;;
19446;SDS011;9862;49.462;11.054;2023-05-02T06:11:09;17.23;;;11.65;;
19446;SDS011;9862;49.462;11.054;2023-05-02T06:13:36;16.40;;;12.20;;
19446;SDS011;9862;49.462;11.054;2023-05-02T06:16:05;14.45;;;11.13;;
19446;SDS011;9862;49.462;11.054;2023-05-02T06:18:31;8.95;;;5.90;;
19446;SDS011;9862;49.462;11.054;2023-05-02T06:21:01;10.07;;;7.25;;
19446;SDS011;9862;49.462;11.054;2023-05-02T06:23:28;15.65;;;10.73;;
19446;SDS011;9862;49.462;11.054;2023-05-02T06:25:57;13.10;;;10.27;;
19446;SDS011;9862;49.462;11.054;2023-05-02T06:28:24;18.30;;;10.32;;
19446;SDS011;9862;49.462;11.054;2023-05-02T06:30:55;11.75;;;9.07;;
19446;SDS011;9862;49.462;11.054;2023-05-02T06:33:24;11.93;;;9.32;;
19446;SDS011;9862;49.462;11.054;2023-05-02T06:35:50;13.25;;;9.05;;
19446;SDS011;9862;49.462;11.054;2023-05-02T06:38:17;11.15;;;8.18;;
19446;SDS011;9862;49.462;11.054;2023-05-02T06:40:43;12.85;;;8.82;;
19446;SDS011;9862;49.462;11.054;2023-05-02T06:43:10;13.77;;;10.02;;
19446;SDS011;9862;49.462;11.054;2023-05-02T06:45:37;13.13;;;10.30;;
19446;SDS011;9862;49.462;11.054;2023-05-02T06:48:04;15.95;;;10.77;;
19446;SDS011;9862;49.462;11.054;2023-05-02T06:50:33;16.27;;;12.07;;
19446;SDS011;9862;49.462;11.054;2023-05-02T06:53:00;15.73;;;10.15;;
19446;SDS011;9862;49.462;11.054;2023-05-02T06:55:26;17.95;;;11.63;;
19446;SDS011;9862;49.462;11.054;2023-05-02T06:57:53;15.10;;;10.65;;
19446;SDS011;9862;49.462;11.054;2023-05-02T07:00:20;16.38;;;11.90;;
19446;SDS011;9862;49.462;11.054;2023-05-02T07:02:48;16.98;;;10.57;;
19446;SDS011;9862;49.462;11.054;2023-05-02T07:05:15;17.70;;;10.95;;
19446;SDS011;9862;49.462;11.054;2023-05-02T07:07:43;14.35;;;10.00;;
19446;SDS011;9862;49.462;11.054;2023-05-02T07:10:10;16.33;;;11.05;;
19446;SDS011;9862;49.462;11.054;2023-05-02T07:12:37;16.25;;;11.50;;
19446;SDS011;9862;49.462;11.054;2023-05-02T07:15:05;15.88;;;10.77;;
19446;SDS011;9862;49.462;11.054;2023-05-02T07:17:32;17.38;;;11.40;;
19446;SDS011;9862;49.462;11.054;2023-05-02T07:19:59;18.42;;;12.23;;
19446;SDS011;9862;49.462;11.054;2023-05-02T07:22:25;18.25;;;11.18;;
19446;SDS011;9862;49.462;11.054;2023-05-02T07:24:57;16.00;;;11.38;;
19446;SDS011;9862;49.462;11.054;2023-05-02T07:27:24;15.35;;;10.85;;
19446;SDS011;9862;49.462;11.054;2023-05-02T07:29:51;16.08;;;11.43;;
19446;SDS011;9862;49.462;11.054;2023-05-02T07:32:18;17.75;;;11.45;;
19446;SDS011;9862;49.462;11.054;2023-05-02T07:34:46;15.63;;;10.93;;
19446;SDS011;9862;49.462;11.054;2023-05-02T07:37:13;15.50;;;11.20;;
19446;SDS011;9862;49.462;11.054;2023-05-02T07:39:39;16.35;;;11.20;;
19446;SDS011;9862;49.462;11.054;2023-05-02T07:42:07;15.73;;;10.25;;
19446;SDS011;9862;49.462;11.054;2023-05-02T07:44:34;14.73;;;10.82;;
19446;SDS011;9862;49.462;11.054;2023-05-02T07:47:01;15.05;;;10.35;;
19446;SDS011;9862;49.462;11.054;2023-05-02T07:49:27;13.30;;;9.57;;
19446;SDS011;9862;49.462;11.054;2023-05-02T07:51:55;18.50;;;12.50;;
19446;SDS011;9862;49.462;11.054;2023-05-02T07:54:21;14.68;;;10.90;;
19446;SDS011;9862;49.462;11.054;2023-05-02T07:56:50;14.05;;;10.10;;
19446;SDS011;9862;49.462;11.054;2023-05-02T07:59:18;11.68;;;9.23;;
19446;SDS011;9862;49.462;11.054;2023-05-02T08:01:44;13.77;;;10.27;;
19446;SDS011;9862;49.462;11.054;2023-05-02T08:04:11;15.25;;;10.43;;
19446;SDS011;9862;49.462;11.054;2023-05-02T08:06:37;15.20;;;10.32;;
19446;SDS011;9862;49.462;11.054;2023-05-02T08:09:04;16.73;;;11.52;;
19446;SDS011;9862;49.462;11.054;2023-05-02T08:11:30;13.15;;;10.20;;
19446;SDS011;9862;49.462;11.054;2023-05-02T08:13:57;16.92;;;11.52;;
19446;SDS011;9862;49.462;11.054;2023-05-02T08:16:25;16.40;;;11.45;;
19446;SDS011;9862;49.462;11.054;2023-05-02T08:18:51;16.55;;;10.60;;
19446;SDS011;9862;49.462;11.054;2023-05-02T08:21:18;15.25;;;10.02;;
19446;SDS011;9862;49.462;11.054;2023-05-02T08:23:45;11.27;;;8.88;;
19446;SDS011;9862;49.462;11.054;2023-05-02T08:26:11;12.65;;;9.30;;
19446;SDS011;9862;49.462;11.054;2023-05-02T08:28:38;16.80;;;10.30;;
19446;SDS011;9862;49.462;11.054;2023-05-02T08:31:05;11.55;;;8.50;;
19446;SDS011;9862;49.462;11.054;2023-05-02T08:33:33;12.70;;;9.50;;
19446;SDS011;9862;49.462;11.054;2023-05-02T08:35:59;11.48;;;9.18;;
19446;SDS011;9862;49.462;11.054;2023-05-02T08:38:26;12.98;;;9.70;;
19446;SDS011;9862;49.462;11.054;2023-05-02T08:40:53;12.00;;;8.57;;
19446;SDS011;9862;49.462;11.054;2023-05-02T08:43:19;10.77;;;8.38;;
19446;SDS011;9862;49.462;11.054;2023-05-02T08:45:46;9.60;;;8.35;;
19446;SDS011;9862;49.462;11.054;2023-05-02T08:48:17;11.55;;;8.65;;
19446;SDS011;9862;49.462;11.054;2023-05-02T08:50:46;14.27;;;9.27;;
19446;SDS011;9862;49.462;11.054;2023-05-02T08:53:14;10.98;;;8.73;;
19446;SDS011;9862;49.462;11.054;2023-05-02T08:55:41;11.07;;;7.93;;
19446;SDS011;9862;49.462;11.054;2023-05-02T08:58:08;12.43;;;9.32;;
19446;SDS011;9862;49.462;11.054;2023-05-02T09:00:36;11.75;;;8.15;;
19446;SDS011;9862;49.462;11.054;2023-05-02T09:03:05;15.70;;;8.98;;
19446;SDS011;9862;49.462;11.054;2023-05-02T09:05:40;10.02;;;8.52;;
19446;SDS011;9862;49.462;11.054;2023-05-02T09:08:08;12.45;;;8.00;;
19446;SDS011;9862;49.462;11.054;2023-05-02T09:10:35;10.80;;;8.38;;
19446;SDS011;9862;49.462;11.054;2023-05-02T09:15:56;10.63;;;8.45;;
19446;SDS011;9862;49.462;11.054;2023-05-02T09:18:27;13.45;;;10.00;;
19446;SDS011;9862;49.462;11.054;2023-05-02T09:20:54;11.23;;;9.07;;
19446;SDS011;9862;49.462;11.054;2023-05-02T09:23:31;11.05;;;8.82;;
19446;SDS011;9862;49.462;11.054;2023-05-02T09:25:59;15.15;;;8.90;;
19446;SDS011;9862;49.462;11.054;2023-05-02T09:28:39;12.02;;;8.73;;
19446;SDS011;9862;49.462;11.054;2023-05-02T09:31:07;11.00;;;9.27;;
19446;SDS011;9862;49.462;11.054;2023-05-02T09:33:35;11.05;;;8.75;;
19446;SDS011;9862;49.462;11.054;2023-05-02T09:36:02;13.07;;;8.82;;
19446;SDS011;9862;49.462;11.054;2023-05-02T09:38:29;10.77;;;8.73;;
19446;SDS011;9862;49.462;11.054;2023-05-02T09:40:57;13.57;;;8.55;;
19446;SDS011;9862;49.462;11.054;2023-05-02T09:43:24;10.13;;;8.10;;
19446;SDS011;9862;49.462;11.054;2023-05-02T09:45:58;11.45;;;8.82;;
19446;SDS011;9862;49.462;11.054;2023-05-02T09:48:27;10.38;;;8.77;;
19446;SDS011;9862;49.462;11.054;2023-05-02T09:50:54;14.18;;;9.63;;
19446;SDS011;9862;49.462;11.054;2023-05-02T09:53:23;12.25;;;9.55;;
19446;SDS011;9862;49.462;11.054;2023-05-02T09:55:59;12.38;;;9.38;;
19446;SDS011;9862;49.462;11.054;2023-05-02T09:58:27;12.95;;;9.18;;
19446;SDS011;9862;49.462;11.054;2023-05-02T10:00:54;11.30;;;9.88;;
19446;SDS011;9862;49.462;11.054;2023-05-02T10:03:22;14.98;;;9.73;;
19446;SDS011;9862;49.462;11.054;2023-05-02T10:05:50;12.10;;;9.25;;
19446;SDS011;9862;49.462;11.054;2023-05-02T10:08:19;12.98;;;9.45;;
19446;SDS011;9862;49.462;11.054;2023-05-02T10:10:49;13.85;;;11.05;;
19446;SDS011;9862;49.462;11.054;2023-05-02T10:13:20;13.02;;;9.18;;
19446;SDS011;9862;49.462;11.054;2023-05-02T10:15:49;12.40;;;8.93;;
19446;SDS011;9862;49.462;11.054;2023-05-02T10:18:22;16.58;;;10.13;;
19446;SDS011;9862;49.462;11.054;2023-05-02T10:20:57;13.20;;;10.18;;
19446;SDS011;9862;49.462;11.054;2023-05-02T10:23:26;16.88;;;10.13;;
19446;SDS011;9862;49.462;11.054;2023-05-02T10:25:53;15.30;;;10.13;;
19446;SDS011;9862;49.462;11.054;2023-05-02T10:28:21;13.38;;;9.85;;
19446;SDS011;9862;49.462;11.054;2023-05-02T10:30:49;13.57;;;10.10;;
19446;SDS011;9862;49.462;11.054;2023-05-02T10:33:17;14.43;;;10.07;;
19446;SDS011;9862;49.462;11.054;2023-05-02T10:35:45;14.05;;;9.68;;
19446;SDS011;9862;49.462;11.054;2023-05-02T10:38:13;12.65;;;9.73;;
19446;SDS011;9862;49.462;11.054;2023-05-02T10:40:46;12.77;;;9.85;;
19446;SDS011;9862;49.462;11.054;2023-05-02T10:43:21;14.40;;;8.95;;
19446;SDS011;9862;49.462;11.054;2023-05-02T10:45:50;11.80;;;8.75;;
19446;SDS011;9862;49.462;11.054;2023-05-02T10:48:18;11.18;;;7.90;;
19446;SDS011;9862;49.462;11.054;2023-05-02T10:50:47;12.18;;;8.18;;
19446;SDS011;9862;49.462;11.054;2023-05-02T10:56:08;11.82;;;7.75;;
19446;SDS011;9862;49.462;11.054;2023-05-02T10:58:38;10.57;;;8.00;;
19446;SDS011;9862;49.462;11.054;2023-05-02T11:04:06;10.55;;;7.30;;
19446;SDS011;9862;49.462;11.054;2023-05-02T11:06:36;11.95;;;7.65;;
19446;SDS011;9862;49.462;11.054;2023-05-02T11:09:31;9.55;;;7.45;;
19446;SDS011;9862;49.462;11.054;2023-05-02T11:11:59;9.80;;;7.22;;
19446;SDS011;9862;49.462;11.054;2023-05-02T11:14:42;11.43;;;7.50;;
19446;SDS011;9862;49.462;11.054;2023-05-02T11:17:16;9.68;;;6.75;;
19446;SDS011;9862;49.462;11.054;2023-05-02T11:22:54;10.10;;;7.18;;
19446;SDS011;9862;49.462;11.054;2023-05-02T11:25:29;11.18;;;7.38;;
19446;SDS011;9862;49.462;11.054;2023-05-02T11:27:56;12.32;;;7.60;;
19446;SDS011;9862;49.462;11.054;2023-05-02T11:30:40;9.05;;;6.60;;
19446;SDS011;9862;49.462;11.054;2023-05-02T11:33:15;6.93;;;5.88;;
19446;SDS011;9862;49.462;11.054;2023-05-02T11:35:44;9.77;;;5.68;;
19446;SDS011;9862;49.462;11.054;2023-05-02T11:38:12;7.88;;;6.15;;
19446;SDS011;9862;49.462;11.054;2023-05-02T11:40:52;7.65;;;6.38;;
19446;SDS011;9862;49.462;11.054;2023-05-02T11:43:21;8.50;;;5.75;;
19446;SDS011;9862;49.462;11.054;2023-05-02T11:45:50;8.48;;;5.85;;
19446;SDS011;9862;49.462;11.054;2023-05-02T11:48:18;8.95;;;7.10;;
19446;SDS011;9862;49.462;11.054;2023-05-02T11:50:46;10.02;;;7.82;;
19446;SDS011;9862;49.462;11.054;2023-05-02T11:53:15;9.50;;;6.85;;
19446;SDS011;9862;49.462;11.054;2023-05-02T11:55:43;7.97;;;6.05;;
19446;SDS011;9862;49.462;11.054;2023-05-02T11:58:12;9.25;;;6.95;;
19446;SDS011;9862;49.462;11.054;2023-05-02T12:00:39;9.43;;;6.30;;
19446;SDS011;9862;49.462;11.054;2023-05-02T12:03:07;8.15;;;6.30;;
19446;SDS011;9862;49.462;11.054;2023-05-02T12:05:34;7.82;;;6.07;;
19446;SDS011;9862;49.462;11.054;2023-05-02T12:08:01;8.15;;;6.55;;
19446;SDS011;9862;49.462;11.054;2023-05-02T12:10:36;9.68;;;7.43;;
19446;SDS011;9862;49.462;11.054;2023-05-02T12:13:03;10.15;;;6.97;;
19446;SDS011;9862;49.462;11.054;2023-05-02T12:15:30;9.45;;;7.05;;
19446;SDS011;9862;49.462;11.054;2023-05-02T12:17:57;10.93;;;6.70;;
19446;SDS011;9862;49.462;11.054;2023-05-02T12:20:26;7.75;;;5.68;;
19446;SDS011;9862;49.462;11.054;2023-05-02T12:22:53;6.55;;;5.10;;
19446;SDS011;9862;49.462;11.054;2023-05-02T12:25:20;10.90;;;5.45;;
19446;SDS011;9862;49.462;11.054;2023-05-02T12:27:58;7.57;;;5.80;;
19446;SDS011;9862;49.462;11.054;2023-05-02T12:30:26;7.15;;;5.28;;
19446;SDS011;9862;49.462;11.054;2023-05-02T12:32:56;5.35;;;4.20;;
19446;SDS011;9862;49.462;11.054;2023-05-02T12:35:23;7.82;;;4.70;;
19446;SDS011;9862;49.462;11.054;2023-05-02T12:37:52;4.50;;;2.80;;
19446;SDS011;9862;49.462;11.054;2023-05-02T12:40:20;8.57;;;3.25;;
19446;SDS011;9862;49.462;11.054;2023-05-02T12:42:57;3.67;;;3.08;;
19446;SDS011;9862;49.462;11.054;2023-05-02T12:45:24;4.03;;;2.58;;
19446;SDS011;9862;49.462;11.054;2023-05-02T12:47:53;3.60;;;3.08;;
19446;SDS011;9862;49.462;11.054;2023-05-02T12:50:20;4.95;;;3.30;;
19446;SDS011;9862;49.462;11.054;2023-05-02T12:53:01;6.72;;;4.18;;
19446;SDS011;9862;49.462;11.054;2023-05-02T12:55:28;7.03;;;5.03;;
19446;SDS011;9862;49.462;11.054;2023-05-02T12:57:59;6.30;;;5.10;;
19446;SDS011;9862;49.462;11.054;2023-05-02T13:00:26;6.18;;;5.03;;
19446;SDS011;9862;49.462;11.054;2023-05-02T13:02:53;7.78;;;4.80;;
19446;SDS011;9862;49.462;11.054;2023-05-02T13:05:20;4.43;;;4.00;;
19446;SDS011;9862;49.462;11.054;2023-05-02T13:07:47;6.35;;;4.53;;
19446;SDS011;9862;49.462;11.054;2023-05-02T13:10:15;3.80;;;3.20;;
19446;SDS011;9862;49.462;11.054;2023-05-02T13:12:42;3.13;;;2.50;;
19446;SDS011;9862;49.462;11.054;2023-05-02T13:15:09;3.15;;;2.80;;
19446;SDS011;9862;49.462;11.054;2023-05-02T13:17:36;3.22;;;2.47;;
19446;SDS011;9862;49.462;11.054;2023-05-02T13:20:02;2.50;;;2.25;;
19446;SDS011;9862;49.462;11.054;2023-05-02T13:22:30;2.25;;;1.90;;
19446;SDS011;9862;49.462;11.054;2023-05-02T13:24:57;3.20;;;1.50;;
19446;SDS011;9862;49.462;11.054;2023-05-02T13:27:25;3.05;;;2.00;;
19446;SDS011;9862;49.462;11.054;2023-05-02T13:29:52;2.38;;;1.67;;
19446;SDS011;9862;49.462;11.054;2023-05-02T13:32:18;3.25;;;1.90;;
19446;SDS011;9862;49.462;11.054;2023-05-02T13:34:45;2.65;;;2.28;;
19446;SDS011;9862;49.462;11.054;2023-05-02T13:37:13;4.03;;;2.60;;
19446;SDS011;9862;49.462;11.054;2023-05-02T13:39:40;5.78;;;3.25;;
19446;SDS011;9862;49.462;11.054;2023-05-02T13:42:06;4.35;;;3.05;;
19446;SDS011;9862;49.462;11.054;2023-05-02T13:44:34;3.40;;;3.00;;
19446;SDS011;9862;49.462;11.054;2023-05-02T13:47:01;4.18;;;3.63;;
19446;SDS011;9862;49.462;11.054;2023-05-02T13:49:28;3.67;;;3.22;;
19446;SDS011;9862;49.462;11.054;2023-05-02T13:51:55;4.68;;;3.97;;
19446;SDS011;9862;49.462;11.054;2023-05-02T13:54:21;6.65;;;3.65;;
19446;SDS011;9862;49.462;11.054;2023-05-02T13:56:48;5.07;;;3.72;;
19446;SDS011;9862;49.462;11.054;2023-05-02T13:59:15;5.70;;;3.75;;
19446;SDS011;9862;49.462;11.054;2023-05-02T14:01:43;4.80;;;3.92;;
19446;SDS011;9862;49.462;11.054;2023-05-02T14:04:10;4.40;;;4.00;;
19446;SDS011;9862;49.462;11.054;2023-05-02T14:06:37;4.78;;;4.28;;
19446;SDS011;9862;49.462;11.054;2023-05-02T14:09:03;6.22;;;4.35;;
19446;SDS011;9862;49.462;11.054;2023-05-02T14:11:31;5.50;;;4.15;;
19446;SDS011;9862;49.462;11.054;2023-05-02T14:13:58;4.15;;;3.22;;
19446;SDS011;9862;49.462;11.054;2023-05-02T14:16:25;4.78;;;3.22;;
19446;SDS011;9862;49.462;11.054;2023-05-02T14:18:52;2.80;;;2.50;;
19446;SDS011;9862;49.462;11.054;2023-05-02T14:21:19;3.47;;;2.58;;
19446;SDS011;9862;49.462;11.054;2023-05-02T14:23:46;2.55;;;2.00;;
19446;SDS011;9862;49.462;11.054;2023-05-02T14:26:12;2.17;;;1.98;;
19446;SDS011;9862;49.462;11.054;2023-05-02T14:28:39;2.53;;;1.70;;
19446;SDS011;9862;49.462;11.054;2023-05-02T14:31:06;3.83;;;2.08;;
19446;SDS011;9862;49.462;11.054;2023-05-02T14:33:32;1.95;;;1.80;;
19446;SDS011;9862;49.462;11.054;2023-05-02T14:36:00;4.55;;;2.22;;
19446;SDS011;9862;49.462;11.054;2023-05-02T14:38:27;2.33;;;1.85;;
19446;SDS011;9862;49.462;11.054;2023-05-02T14:40:54;1.77;;;1.60;;
19446;SDS011;9862;49.462;11.054;2023-05-02T14:43:20;2.05;;;1.63;;
19446;SDS011;9862;49.462;11.054;2023-05-02T14:45:47;2.65;;;1.75;;
19446;SDS011;9862;49.462;11.054;2023-05-02T14:48:14;2.22;;;1.67;;
19446;SDS011;9862;49.462;11.054;2023-05-02T14:50:41;2.05;;;1.70;;